createdAt,value
2023-05-06T00:02:05.675Z,42178.34
2023-05-06T00:04:32.419Z,42162.38
2023-05-06T00:06:59.142Z,42150.38
2023-05-06T00:09:25.685Z,42154.38
2023-05-06T00:11:52.085Z,42150.38
2023-05-06T00:14:18.517Z,42160.38
2023-05-06T00:16:45.146Z,42170.34
2023-05-06T00:19:12.407Z,42160.38
2023-05-06T00:21:39.428Z,42150.38
2023-05-06T00:24:06.114Z,42150.38
2023-05-06T00:26:32.678Z,42162.38
2023-05-06T00:28:59.066Z,42178.34
2023-05-06T00:31:25.610Z,42162.38
2023-05-06T00:33:52.457Z,42162.38
2023-05-06T00:36:18.911Z,42170.34
2023-05-06T00:38:45.574Z,42194.31
2023-05-06T00:41:12.060Z,42210.28
2023-05-06T00:43:38.489Z,42214.28
2023-05-06T00:46:06.299Z,42198.31
2023-05-06T00:48:32.789Z,42226.25
2023-05-06T00:50:59.300Z,42214.28
2023-05-06T00:53:25.865Z,42250.22
2023-05-06T00:55:52.592Z,42224.25
2023-05-06T00:58:20.242Z,42240.22
2023-05-06T01:00:46.819Z,42258.19
2023-05-06T01:03:13.362Z,42244.22
2023-05-06T01:06:12.481Z,42248.22
2023-05-06T01:08:57.439Z,42234.25
2023-05-06T01:11:50.108Z,42238.22
2023-05-06T01:14:20.751Z,42266.19
2023-05-06T01:16:53.654Z,42214.28
2023-05-06T01:19:49.052Z,42270.19
2023-05-06T01:22:16.327Z,42256.19
2023-05-06T01:24:44.349Z,42238.22
2023-05-06T01:27:12.694Z,42248.22
2023-05-06T01:29:42.113Z,42244.22
2023-05-06T01:32:15.769Z,42242.22
2023-05-06T01:34:53.811Z,42242.22
2023-05-06T01:37:27.591Z,42266.19
2023-05-06T01:39:58.546Z,42256.19
2023-05-06T01:42:26.886Z,42252.22
2023-05-06T01:44:55.604Z,42242.22
2023-05-06T01:47:22.961Z,42254.19
2023-05-06T01:49:49.804Z,42282.16
2023-05-06T01:52:16.474Z,42258.19
2023-05-06T01:54:44.298Z,42262.19
2023-05-06T01:57:10.819Z,42280.16
2023-05-06T01:59:37.327Z,42254.19
2023-05-06T02:02:03.861Z,42270.19
2023-05-06T02:04:30.974Z,42282.16
2023-05-06T02:06:57.361Z,42278.16
2023-05-06T02:09:24.020Z,42254.19
2023-05-06T02:11:56.032Z,42282.16
2023-05-06T02:14:23.398Z,42286.16
2023-05-06T02:16:51.181Z,42286.16
2023-05-06T02:19:17.895Z,42280.16
2023-05-06T02:21:44.536Z,42290.13
2023-05-06T02:24:11.088Z,42264.19
2023-05-06T02:26:37.519Z,42294.13
2023-05-06T02:29:04.069Z,42270.19
2023-05-06T02:31:30.601Z,42264.19
2023-05-06T02:33:57.083Z,42258.19
2023-05-06T02:36:23.668Z,42286.16
2023-05-06T02:38:50.178Z,42290.13
2023-05-06T02:41:16.609Z,42278.16
2023-05-06T02:43:43.070Z,42282.16
2023-05-06T02:46:09.918Z,42280.16
2023-05-06T02:48:36.357Z,42294.13
2023-05-06T02:51:03.818Z,42266.19
2023-05-06T02:53:30.284Z,42274.16
2023-05-06T02:55:56.686Z,42264.19
2023-05-06T02:58:23.158Z,42274.16
2023-05-06T03:00:49.585Z,42294.13
2023-05-06T03:03:16.769Z,42286.16
2023-05-06T03:05:43.244Z,42262.19
2023-05-06T03:08:10.134Z,42290.13
2023-05-06T03:10:36.826Z,42262.19
2023-05-06T03:13:03.583Z,42266.19
2023-05-06T03:15:31.935Z,42274.16
2023-05-06T03:17:58.640Z,42264.19
2023-05-06T03:20:25.839Z,42270.19
2023-05-06T03:22:56.459Z,42288.16
2023-05-06T03:25:23.701Z,42280.16
2023-05-06T03:27:50.780Z,42288.16
2023-05-06T03:30:20.849Z,42268.19
2023-05-06T03:32:49.814Z,42290.13
2023-05-06T03:35:22.739Z,42276.16
2023-05-06T03:37:53.647Z,42252.22
2023-05-06T03:40:22.501Z,42270.19
2023-05-06T03:42:50.103Z,42282.16
2023-05-06T03:45:16.837Z,42254.19
2023-05-06T03:47:44.961Z,42248.22
2023-05-06T03:50:12.138Z,42230.25
2023-05-06T03:52:40.062Z,42226.25
2023-05-06T03:55:07.117Z,42218.25
2023-05-06T03:57:35.202Z,42182.31
2023-05-06T04:00:01.858Z,42198.31
2023-05-06T04:02:31.152Z,42178.34
2023-05-06T04:04:58.103Z,42188.31
2023-05-06T04:07:24.649Z,42166.34
2023-05-06T04:09:51.048Z,42174.34
2023-05-06T04:12:18.623Z,42162.38
2023-05-06T04:14:46.093Z,42136.41
2023-05-06T04:17:12.736Z,42110.47
2023-05-06T04:19:39.216Z,42090.50
2023-05-06T04:22:05.641Z,42086.50
2023-05-06T04:24:33.757Z,42086.50
2023-05-06T04:27:00.629Z,42086.50
2023-05-06T04:29:28.331Z,42070.53
2023-05-06T04:32:01.127Z,42062.53
2023-05-06T04:34:30.832Z,42072.53
2023-05-06T04:37:00.641Z,42052.56
2023-05-06T04:39:47.392Z,42054.56
2023-05-06T04:42:16.152Z,42048.56
2023-05-06T04:44:50.079Z,42054.56
2023-05-06T04:47:20.934Z,42046.56
2023-05-06T04:49:50.864Z,42034.59
2023-05-06T04:52:18.073Z,42034.59
2023-05-06T04:54:45.563Z,41998.66
2023-05-06T04:57:12.863Z,42004.66
2023-05-06T04:59:42.485Z,41990.66
2023-05-06T05:02:08.937Z,41994.66
2023-05-06T05:04:36.323Z,42002.66
2023-05-06T05:07:03.262Z,41980.69
2023-05-06T05:09:31.179Z,41978.69
2023-05-06T05:11:57.747Z,41998.66
2023-05-06T05:14:24.186Z,41986.69
2023-05-06T05:16:51.402Z,41984.69
2023-05-06T05:19:18.019Z,42002.66
2023-05-06T05:21:44.789Z,42008.63
2023-05-06T05:24:13.215Z,42018.63
2023-05-06T05:26:40.229Z,41990.66
2023-05-06T05:29:06.802Z,42018.63
2023-05-06T05:31:33.827Z,42022.63
2023-05-06T05:34:00.439Z,42010.63
2023-05-06T05:36:27.622Z,42054.56
2023-05-06T05:38:55.485Z,42052.56
2023-05-06T05:41:26.484Z,42024.59
2023-05-06T05:43:54.068Z,42046.56
2023-05-06T05:46:20.673Z,42046.56
2023-05-06T05:48:48.446Z,42078.50
2023-05-06T05:51:16.696Z,42058.53
2023-05-06T05:53:44.611Z,42086.50
2023-05-06T05:56:11.810Z,42106.47
2023-05-06T05:58:38.982Z,42092.50
2023-05-06T06:01:06.035Z,42122.44
2023-05-06T06:03:33.215Z,42142.41
2023-05-06T06:05:59.756Z,42154.38
2023-05-06T06:08:29.622Z,42178.34
2023-05-06T06:10:57.678Z,42210.28
2023-05-06T06:13:29.560Z,42206.28
2023-05-06T06:15:58.863Z,42234.25
2023-05-06T06:18:25.517Z,42256.19
2023-05-06T06:20:53.508Z,42266.19
2023-05-06T06:23:20.918Z,42280.16
2023-05-06T06:25:47.376Z,42280.16
2023-05-06T06:28:13.782Z,42290.13
2023-05-06T06:30:40.905Z,42334.06
2023-05-06T06:33:07.663Z,42348.03
2023-05-06T06:35:34.745Z,42358.03
2023-05-06T06:38:01.171Z,42358.03
2023-05-06T06:40:28.229Z,42350.03
2023-05-06T06:42:54.643Z,42370.00
2023-05-06T06:45:39.599Z,42401.94
2023-05-06T06:48:06.182Z,42413.94
2023-05-06T06:50:32.828Z,42417.94
2023-05-06T06:52:59.258Z,42417.94
2023-05-06T06:55:25.836Z,42465.84
2023-05-06T06:57:52.679Z,42469.84
2023-05-06T07:00:19.087Z,42485.81
2023-05-06T07:02:48.013Z,42487.81
2023-05-06T07:05:14.720Z,42495.78
2023-05-06T07:07:41.116Z,42493.78
2023-05-06T07:10:08.746Z,42533.72
2023-05-06T07:12:35.266Z,42537.72
2023-05-06T07:15:04.792Z,42541.72
2023-05-06T07:17:31.776Z,42573.66
2023-05-06T07:19:58.190Z,42579.66
2023-05-06T07:22:24.629Z,42559.69
2023-05-06T07:24:51.032Z,42581.66
2023-05-06T07:27:17.435Z,42581.66
2023-05-06T07:29:44.022Z,42617.59
2023-05-06T07:32:10.488Z,42629.56
2023-05-06T07:34:36.991Z,42641.56
2023-05-06T07:37:03.860Z,42669.50
2023-05-06T07:39:30.988Z,42631.56
2023-05-06T07:41:57.383Z,42669.50
2023-05-06T07:44:23.879Z,42681.50
2023-05-06T07:46:50.644Z,42689.47
2023-05-06T07:49:17.226Z,42673.50
2023-05-06T07:51:44.035Z,42709.44
2023-05-06T07:54:11.141Z,42701.47
2023-05-06T07:56:37.529Z,42701.47
2023-05-06T07:59:04.128Z,42721.44
2023-05-06T08:01:30.540Z,42697.47
2023-05-06T08:03:57.039Z,42705.44
2023-05-06T08:06:23.612Z,42705.44
2023-05-06T08:08:50.708Z,42677.50
2023-05-06T08:11:19.268Z,42665.50
2023-05-06T08:13:47.009Z,42643.56
2023-05-06T08:16:13.915Z,42661.53
2023-05-06T08:18:40.435Z,42605.63
2023-05-06T08:21:06.903Z,42623.59
2023-05-06T08:23:33.298Z,42553.69
2023-05-06T08:25:59.684Z,42533.72
2023-05-06T08:28:26.372Z,42505.78
2023-05-06T08:30:52.843Z,42495.78
2023-05-06T08:33:19.484Z,42481.81
2023-05-06T08:35:46.783Z,42453.88
2023-05-06T08:38:13.188Z,42461.84
2023-05-06T08:40:43.259Z,42409.94
2023-05-06T08:43:20.452Z,42381.97
2023-05-06T08:45:47.556Z,42350.03
2023-05-06T08:48:14.102Z,42352.03
2023-05-06T08:50:44.104Z,42360.03
2023-05-06T08:53:14.091Z,42336.06
2023-05-06T08:55:42.001Z,42338.06
2023-05-06T08:58:11.049Z,42296.13
2023-05-06T09:00:37.757Z,42258.19
2023-05-06T09:03:04.427Z,42214.28
2023-05-06T09:05:31.050Z,42240.22
2023-05-06T09:07:57.574Z,42274.16
2023-05-06T09:10:24.141Z,42242.22
2023-05-06T09:12:53.674Z,42230.25
2023-05-06T09:15:24.130Z,42234.25
2023-05-06T09:17:50.822Z,42254.19
2023-05-06T09:20:17.412Z,42226.25
2023-05-06T09:22:43.828Z,42146.41
2023-05-06T09:25:11.786Z,42134.41
2023-05-06T09:27:38.733Z,42126.44
2023-05-06T09:30:09.426Z,42162.38
2023-05-06T09:32:39.113Z,42116.44
2023-05-06T09:35:07.011Z,42098.47
2023-05-06T09:37:33.725Z,42094.47
2023-05-06T09:40:01.071Z,42106.47
2023-05-06T09:42:29.136Z,42110.47
2023-05-06T09:44:59.877Z,42096.47
2023-05-06T09:47:34.902Z,42062.53
2023-05-06T09:50:02.910Z,42054.56
2023-05-06T09:52:30.979Z,42066.53
2023-05-06T09:54:58.172Z,42040.59
2023-05-06T09:57:25.841Z,42082.50
2023-05-06T09:59:53.923Z,42038.59
2023-05-06T10:02:23.682Z,42014.63
2023-05-06T10:04:53.604Z,41962.72
2023-05-06T10:07:25.777Z,41968.72
2023-05-06T10:09:54.290Z,41932.78
2023-05-06T10:12:21.193Z,41958.72
2023-05-06T10:14:47.875Z,41920.78
2023-05-06T10:17:14.670Z,41886.84
2023-05-06T10:19:44.929Z,41854.91
2023-05-06T10:22:35.561Z,41779.06
2023-05-06T10:25:16.957Z,41803.00
2023-05-06T10:27:45.996Z,41846.94
2023-05-06T10:30:18.546Z,41767.09
2023-05-06T10:32:46.074Z,41735.16
2023-05-06T10:35:38.221Z,41653.28
2023-05-06T10:38:09.952Z,41623.34
2023-05-06T10:40:36.905Z,41595.41
2023-05-06T10:43:24.226Z,41591.41
2023-05-06T10:46:00.054Z,41585.44
2023-05-06T10:48:26.758Z,41535.53
2023-05-06T10:51:15.884Z,41491.63
2023-05-06T10:54:11.701Z,41487.63
2023-05-06T10:56:40.413Z,41487.63
2023-05-06T10:59:09.188Z,41471.66
2023-05-06T11:01:43.704Z,41427.75
2023-05-06T11:04:15.553Z,41431.72
2023-05-06T11:06:46.071Z,41471.66
2023-05-06T11:09:19.477Z,41443.72
2023-05-06T11:11:58.262Z,41453.69
2023-05-06T11:14:27.228Z,41417.75
2023-05-06T11:16:55.010Z,41399.78
2023-05-06T11:19:32.898Z,41453.69
2023-05-06T11:22:01.333Z,41411.78
2023-05-06T11:24:29.923Z,41427.75
2023-05-06T11:26:59.072Z,41399.78
2023-05-06T11:29:26.128Z,41399.78
2023-05-06T11:31:55.768Z,41347.91
2023-05-06T11:34:30.890Z,41343.91
2023-05-06T11:37:03.287Z,41389.81
2023-05-06T11:39:34.926Z,41381.81
2023-05-06T11:42:09.668Z,41365.84
2023-05-06T11:44:37.787Z,41335.91
2023-05-06T11:47:05.852Z,41313.97
2023-05-06T11:49:39.979Z,41286.03
2023-05-06T11:52:08.199Z,41276.03
2023-05-06T11:54:43.768Z,41228.13
2023-05-06T11:57:10.815Z,41200.19
2023-05-06T11:59:38.662Z,41064.47
2023-05-06T12:02:10.078Z,40984.63
2023-05-06T12:04:48.326Z,40960.69
2023-05-06T12:07:16.139Z,40974.66
2023-05-06T12:09:48.397Z,40940.72
2023-05-06T12:12:22.321Z,40952.72
2023-05-06T12:14:50.228Z,40908.81
2023-05-06T12:17:16.857Z,40892.84
2023-05-06T12:19:43.455Z,40735.19
2023-05-06T12:22:15.772Z,40665.34
2023-05-06T12:24:42.458Z,40601.47
2023-05-06T12:27:08.897Z,40557.56
2023-05-06T12:29:35.377Z,40607.47
2023-05-06T12:32:11.944Z,40571.53
2023-05-06T12:34:41.408Z,40551.59
2023-05-06T12:37:11.020Z,40549.59
2023-05-06T12:39:39.001Z,40581.50
2023-05-06T12:42:06.334Z,40553.56
2023-05-06T12:44:37.788Z,40575.53
2023-05-06T12:47:09.414Z,40354.03
2023-05-06T12:49:55.318Z,40425.88
2023-05-06T12:52:24.501Z,40389.94
2023-05-06T12:54:52.538Z,40314.13
2023-05-06T12:57:19.709Z,40316.13
2023-05-06T12:59:46.300Z,40342.06
2023-05-06T13:02:13.738Z,40374.00
2023-05-06T13:04:40.776Z,40374.00
2023-05-06T13:07:07.395Z,40246.28
2023-05-06T13:09:34.011Z,40286.19
2023-05-06T13:12:02.252Z,40124.56
2023-05-06T13:14:28.655Z,40114.59
2023-05-06T13:16:55.102Z,40174.44
2023-05-06T13:19:32.445Z,40194.41
2023-05-06T13:22:00.212Z,39939.00
2023-05-06T13:24:26.716Z,39901.09
2023-05-06T13:26:53.125Z,39829.28
2023-05-06T13:29:19.503Z,39863.19
2023-05-06T13:31:45.961Z,39805.34
2023-05-06T13:34:12.852Z,39787.38
2023-05-06T13:36:39.308Z,39697.59
2023-05-06T13:39:05.782Z,39617.81
2023-05-06T13:41:32.746Z,39542.00
2023-05-06T13:43:59.273Z,39516.06
2023-05-06T13:46:27.126Z,39488.13
2023-05-06T13:48:53.999Z,39428.28
2023-05-06T13:51:20.789Z,39316.56
2023-05-06T13:53:47.196Z,39302.63
2023-05-06T13:56:13.653Z,39316.56
2023-05-06T13:58:40.051Z,39214.84
2023-05-06T14:01:07.491Z,39162.97
2023-05-06T14:03:33.944Z,39159.00
2023-05-06T14:06:01.187Z,39065.25
2023-05-06T14:08:27.573Z,39059.25
2023-05-06T14:10:53.955Z,39097.16
2023-05-06T14:13:20.597Z,39025.34
2023-05-06T14:15:47.153Z,38997.44
2023-05-06T14:18:13.902Z,39013.38
2023-05-06T14:20:40.484Z,38885.72
2023-05-06T14:23:07.012Z,38905.66
2023-05-06T14:25:33.529Z,38933.59
2023-05-06T14:28:00.353Z,38877.75
2023-05-06T14:30:26.792Z,38841.84
2023-05-06T14:32:53.232Z,38879.75
2023-05-06T14:35:19.837Z,38859.81
2023-05-06T14:37:46.323Z,38851.81
2023-05-06T14:40:12.986Z,38774.03
2023-05-06T14:42:39.670Z,38790.00
2023-05-06T14:45:06.871Z,38744.13
2023-05-06T14:47:33.401Z,38732.16
2023-05-06T14:49:59.880Z,38650.38
2023-05-06T14:52:26.279Z,38590.56
2023-05-06T14:54:52.673Z,38612.50
2023-05-06T14:57:19.142Z,38518.75
2023-05-06T14:59:46.031Z,38514.75
2023-05-06T15:02:12.532Z,38544.69
2023-05-06T15:04:38.936Z,38502.78
2023-05-06T15:07:05.603Z,38474.88
2023-05-06T15:09:32.027Z,38458.91
2023-05-06T15:11:58.519Z,38484.84
2023-05-06T15:14:25.345Z,38375.16
2023-05-06T15:16:57.090Z,38407.06
2023-05-06T15:19:24.194Z,38387.13
2023-05-06T15:21:50.938Z,38512.78
2023-05-06T15:24:17.313Z,38638.41
2023-05-06T15:26:43.737Z,38702.22
2023-05-06T15:29:10.156Z,38805.94
2023-05-06T15:31:39.291Z,38853.81
2023-05-06T15:34:09.446Z,38929.59
2023-05-06T15:36:35.911Z,38953.53
2023-05-06T15:39:03.183Z,38941.56
2023-05-06T15:41:34.948Z,39009.38
2023-05-06T15:44:02.867Z,39025.34
2023-05-06T15:46:30.476Z,39001.41
2023-05-06T15:49:15.595Z,39011.38
2023-05-06T15:51:43.611Z,39025.34
2023-05-06T15:54:10.056Z,39069.22
2023-05-06T15:56:40.717Z,39089.19
2023-05-06T15:59:08.499Z,39081.19
2023-05-06T16:02:04.612Z,39129.06
2023-05-06T16:04:21.655Z,39149.03
2023-05-06T16:06:48.634Z,39157.00
2023-05-06T16:09:15.285Z,39224.81
2023-05-06T16:11:41.656Z,39296.63
2023-05-06T16:14:08.069Z,39332.53
2023-05-06T16:16:35.223Z,39332.53
2023-05-06T16:19:01.770Z,39328.53
2023-05-06T16:21:28.663Z,39342.50
2023-05-06T16:23:55.343Z,39312.59
2023-05-06T16:26:22.011Z,39372.44
2023-05-06T16:28:48.410Z,39380.41
2023-05-06T16:31:14.932Z,39392.38
2023-05-06T16:33:41.314Z,39388.38
2023-05-06T16:36:07.933Z,39382.41
2023-05-06T16:38:34.538Z,39440.25
2023-05-06T16:41:01.334Z,39478.16
2023-05-06T16:43:27.825Z,39484.16
2023-05-06T16:45:54.353Z,39532.03
2023-05-06T16:48:20.971Z,39555.97
2023-05-06T16:50:47.453Z,39603.84
2023-05-06T16:53:14.586Z,39671.66
2023-05-06T16:55:46.533Z,39699.59
2023-05-06T16:58:13.618Z,39783.41
2023-05-06T17:00:40.162Z,39803.34
2023-05-06T17:03:07.034Z,39835.25
2023-05-06T17:05:34.194Z,39819.31
2023-05-06T17:08:00.888Z,39815.31
2023-05-06T17:10:29.282Z,39837.25
2023-05-06T17:12:57.346Z,39867.19
2023-05-06T17:15:24.866Z,39871.19
2023-05-06T17:17:51.706Z,39867.19
2023-05-06T17:20:19.847Z,39895.13
2023-05-06T17:22:46.619Z,39895.13
2023-05-06T17:25:13.826Z,39931.03
2023-05-06T17:27:40.265Z,39939.00
2023-05-06T17:30:09.736Z,39956.97
2023-05-06T17:32:36.374Z,39970.94
2023-05-06T17:35:02.993Z,40006.84
2023-05-06T17:37:30.996Z,40030.78
2023-05-06T17:39:57.420Z,40048.75
2023-05-06T17:42:23.950Z,40074.69
2023-05-06T17:44:50.447Z,40014.81
2023-05-06T17:47:17.356Z,40050.75
2023-05-06T17:49:44.047Z,40066.69
2023-05-06T17:52:10.606Z,40074.69
2023-05-06T17:54:38.186Z,40108.59
2023-05-06T17:57:04.724Z,40094.63
2023-05-06T17:59:31.202Z,40110.59
2023-05-06T18:01:57.753Z,40110.59
2023-05-06T18:04:24.323Z,40114.59
2023-05-06T18:06:50.739Z,40114.59
2023-05-06T18:09:17.152Z,40120.56
2023-05-06T18:11:43.861Z,40138.53
2023-05-06T18:14:11.012Z,40132.56
2023-05-06T18:16:37.860Z,40142.53
2023-05-06T18:19:05.102Z,40096.63
2023-05-06T18:21:33.827Z,40134.53
2023-05-06T18:24:05.867Z,40090.66
2023-05-06T18:26:45.438Z,40098.63
2023-05-06T18:29:12.650Z,40078.69
2023-05-06T18:31:39.273Z,40096.63
2023-05-06T18:34:05.770Z,40094.63
2023-05-06T18:36:32.658Z,40118.59
2023-05-06T18:38:59.091Z,40148.50
2023-05-06T18:41:25.646Z,40158.50
2023-05-06T18:43:52.221Z,40170.47
2023-05-06T18:46:18.734Z,40174.44
2023-05-06T18:48:45.323Z,40200.38
2023-05-06T18:51:17.991Z,40216.34
2023-05-06T18:53:45.043Z,40210.38
2023-05-06T18:56:13.296Z,40214.34
2023-05-06T18:58:40.549Z,40226.31
2023-05-06T19:01:09.114Z,40190.41
2023-05-06T19:03:36.266Z,40202.38
2023-05-06T19:06:04.433Z,40250.28
2023-05-06T19:08:32.143Z,40244.28
2023-05-06T19:10:59.792Z,40284.19
2023-05-06T19:13:26.380Z,40298.16
2023-05-06T19:15:52.786Z,40360.03
2023-05-06T19:18:19.185Z,40362.00
2023-05-06T19:20:45.694Z,40375.97
2023-05-06T19:23:12.439Z,40389.94
2023-05-06T19:25:39.186Z,40449.81
2023-05-06T19:28:06.408Z,40493.72
2023-05-06T19:30:34.618Z,40521.66
2023-05-06T19:33:02.223Z,40549.59
2023-05-06T19:35:28.886Z,40613.44
2023-05-06T19:37:55.984Z,40661.34
2023-05-06T19:40:22.658Z,40725.19
2023-05-06T19:42:49.170Z,40777.09
2023-05-06T19:45:16.714Z,40836.97
2023-05-06T19:47:45.554Z,40904.81
2023-05-06T19:50:12.802Z,40954.72
2023-05-06T19:52:39.657Z,40976.66
2023-05-06T19:55:06.669Z,41064.47
2023-05-06T19:57:33.653Z,41122.34
2023-05-06T20:00:00.319Z,41160.28
2023-05-06T20:02:27.473Z,41234.13
2023-05-06T20:04:53.950Z,41300.00
2023-05-06T20:07:21.168Z,41331.94
2023-05-06T20:09:54.975Z,41383.81
2023-05-06T20:12:22.582Z,41451.69
2023-05-06T20:14:49.621Z,41503.59
2023-05-06T20:17:16.633Z,41529.53
2023-05-06T20:19:43.120Z,41605.38
2023-05-06T20:22:09.505Z,41633.34
2023-05-06T20:24:37.021Z,41715.19
2023-05-06T20:27:03.559Z,41781.06
2023-05-06T20:29:30.660Z,41842.94
2023-05-06T20:31:57.351Z,41882.88
2023-05-06T20:34:23.845Z,41942.75
2023-05-06T20:36:51.478Z,42002.66
2023-05-06T20:39:17.947Z,42014.63
2023-05-06T20:41:44.415Z,42054.56
2023-05-06T20:44:11.310Z,42056.56
2023-05-06T20:46:38.190Z,42066.53
2023-05-06T20:49:04.720Z,42120.44
2023-05-06T20:51:31.099Z,42106.47
2023-05-06T20:53:58.999Z,42106.47
2023-05-06T20:56:27.727Z,42118.44
2023-05-06T20:58:55.656Z,42126.44
2023-05-06T21:01:23.790Z,42118.44
2023-05-06T21:03:50.539Z,42138.41
2023-05-06T21:06:18.888Z,42150.38
2023-05-06T21:08:46.468Z,42150.38
2023-05-06T21:11:13.630Z,42170.34
2023-05-06T21:13:40.795Z,42162.38
2023-05-06T21:16:07.893Z,42176.34
2023-05-06T21:18:34.553Z,42168.34
2023-05-06T21:21:01.314Z,42186.31
2023-05-06T21:23:27.722Z,42198.31
2023-05-06T21:25:54.427Z,42214.28
2023-05-06T21:28:20.919Z,42232.25
2023-05-06T21:30:47.410Z,42222.25
2023-05-06T21:33:13.825Z,42282.16
2023-05-06T21:35:40.725Z,42270.19
2023-05-06T21:38:07.208Z,42302.13
2023-05-06T21:40:33.780Z,42302.13
2023-05-06T21:43:00.242Z,42314.09
2023-05-06T21:45:26.745Z,42332.06
2023-05-06T21:47:53.381Z,42322.09
2023-05-06T21:50:20.178Z,42350.03
2023-05-06T21:52:46.558Z,42338.06
2023-05-06T21:55:13.681Z,42374.00
2023-05-06T21:57:40.680Z,42380.00
2023-05-06T22:00:11.755Z,42350.03
2023-05-06T22:02:39.597Z,42364.00
2023-05-06T22:05:09.500Z,42374.00
2023-05-06T22:07:36.165Z,42397.97
2023-05-06T22:10:03.381Z,42378.00
2023-05-06T22:12:30.897Z,42378.00
2023-05-06T22:14:57.466Z,42378.00
2023-05-06T22:17:24.044Z,42397.97
2023-05-06T22:19:51.458Z,42381.97
2023-05-06T22:22:18.380Z,42389.97
2023-05-06T22:24:44.858Z,42397.97
2023-05-06T22:27:11.863Z,42393.97
2023-05-06T22:29:38.307Z,42403.94
2023-05-06T22:32:05.400Z,42397.97
2023-05-06T22:34:32.042Z,42417.94
2023-05-06T22:37:00.413Z,42409.94
2023-05-06T22:39:27.535Z,42439.88
2023-05-06T22:41:53.935Z,42443.88
2023-05-06T22:44:20.998Z,42449.88
2023-05-06T22:46:47.515Z,42453.88
2023-05-06T22:49:15.763Z,42459.84
2023-05-06T22:51:42.345Z,42469.84
2023-05-06T22:54:08.823Z,42479.81
2023-05-06T22:56:35.312Z,42489.81
2023-05-06T22:59:01.692Z,42485.81
2023-05-06T23:01:31.923Z,42491.81
2023-05-06T23:03:59.383Z,42489.81
2023-05-06T23:06:27.798Z,42501.78
2023-05-06T23:08:54.176Z,42517.75
2023-05-06T23:11:20.721Z,42515.75
2023-05-06T23:13:47.251Z,42529.75
2023-05-06T23:16:14.569Z,42535.72
2023-05-06T23:18:41.472Z,42537.72
2023-05-06T23:21:09.104Z,42537.72
2023-05-06T23:23:35.759Z,42549.72
2023-05-06T23:26:02.331Z,42553.69
2023-05-06T23:28:29.014Z,42589.63
2023-05-06T23:30:55.644Z,42559.69
2023-05-06T23:33:22.375Z,42589.63
2023-05-06T23:35:48.819Z,42585.66
2023-05-06T23:38:15.208Z,42565.69
2023-05-06T23:40:41.618Z,42589.63
2023-05-06T23:43:09.754Z,42571.66
2023-05-06T23:45:36.810Z,42583.66
2023-05-06T23:48:03.615Z,42581.66
2023-05-06T23:50:30.168Z,42603.63
2023-05-06T23:52:56.573Z,42609.59
2023-05-06T23:55:23.003Z,42597.63
2023-05-06T23:57:49.481Z,42601.63
